sensor_id;sensor_type;location;lat;lon;timestamp;P1;durP1;ratioP1;P2;durP2;ratioP2
68507;SDS011;55510;49.560;19.090;2022-09-09T00:00:20;3.45;;;1.98;;
68507;SDS011;55510;49.560;19.090;2022-09-09T00:10:45;3.13;;;1.43;;
68507;SDS011;55510;49.560;19.090;2022-09-09T00:15:59;3.35;;;1.88;;
68507;SDS011;55510;49.560;19.090;2022-09-09T00:21:07;5.20;;;1.50;;
68507;SDS011;55510;49.560;19.090;2022-09-09T00:31:41;4.40;;;1.55;;
68507;SDS011;55510;49.560;19.090;2022-09-09T00:36:42;3.72;;;1.42;;
68507;SDS011;55510;49.560;19.090;2022-09-09T00:42:03;4.03;;;1.90;;
68507;SDS011;55510;49.560;19.090;2022-09-09T00:47:17;4.38;;;2.13;;
68507;SDS011;55510;49.560;19.090;2022-09-09T00:57:48;2.97;;;1.57;;
68507;SDS011;55510;49.560;19.090;2022-09-09T01:13:40;3.23;;;1.50;;
68507;SDS011;55510;49.560;19.090;2022-09-09T01:18:46;3.40;;;1.70;;
68507;SDS011;55510;49.560;19.090;2022-09-09T01:29:19;3.92;;;1.77;;
68507;SDS011;55510;49.560;19.090;2022-09-09T01:34:23;4.90;;;2.10;;
68507;SDS011;55510;49.560;19.090;2022-09-09T01:39:25;3.50;;;1.90;;
68507;SDS011;55510;49.560;19.090;2022-09-09T01:44:26;3.50;;;1.60;;
68507;SDS011;55510;49.560;19.090;2022-09-09T01:49:30;4.80;;;2.30;;
68507;SDS011;55510;49.560;19.090;2022-09-09T01:54:32;3.40;;;1.67;;
68507;SDS011;55510;49.560;19.090;2022-09-09T02:04:39;4.33;;;1.93;;
68507;SDS011;55510;49.560;19.090;2022-09-09T02:09:43;4.10;;;1.65;;
68507;SDS011;55510;49.560;19.090;2022-09-09T02:14:49;3.83;;;1.90;;
68507;SDS011;55510;49.560;19.090;2022-09-09T02:19:58;4.27;;;2.10;;
68507;SDS011;55510;49.560;19.090;2022-09-09T02:25:06;5.05;;;1.92;;
68507;SDS011;55510;49.560;19.090;2022-09-09T02:30:10;4.72;;;2.33;;
68507;SDS011;55510;49.560;19.090;2022-09-09T02:35:13;5.20;;;2.17;;
68507;SDS011;55510;49.560;19.090;2022-09-09T02:40:17;4.72;;;2.28;;
68507;SDS011;55510;49.560;19.090;2022-09-09T02:45:19;5.23;;;2.97;;
68507;SDS011;55510;49.560;19.090;2022-09-09T03:00:40;5.23;;;2.60;;
68507;SDS011;55510;49.560;19.090;2022-09-09T03:05:41;4.22;;;2.30;;
68507;SDS011;55510;49.560;19.090;2022-09-09T03:10:43;5.57;;;2.72;;
68507;SDS011;55510;49.560;19.090;2022-09-09T03:15:44;9.27;;;4.13;;
68507;SDS011;55510;49.560;19.090;2022-09-09T03:20:45;12.50;;;6.53;;
68507;SDS011;55510;49.560;19.090;2022-09-09T03:25:49;13.23;;;6.63;;
68507;SDS011;55510;49.560;19.090;2022-09-09T03:30:50;10.73;;;6.03;;
68507;SDS011;55510;49.560;19.090;2022-09-09T03:35:51;9.50;;;5.13;;
68507;SDS011;55510;49.560;19.090;2022-09-09T03:40:52;7.70;;;4.30;;
68507;SDS011;55510;49.560;19.090;2022-09-09T03:45:55;6.90;;;3.30;;
68507;SDS011;55510;49.560;19.090;2022-09-09T03:50:57;6.53;;;3.42;;
68507;SDS011;55510;49.560;19.090;2022-09-09T03:56:01;7.30;;;3.53;;
68507;SDS011;55510;49.560;19.090;2022-09-09T04:01:07;6.67;;;3.43;;
68507;SDS011;55510;49.560;19.090;2022-09-09T04:06:14;6.47;;;3.53;;
68507;SDS011;55510;49.560;19.090;2022-09-09T04:11:15;8.30;;;4.40;;
68507;SDS011;55510;49.560;19.090;2022-09-09T04:16:16;6.32;;;3.78;;
68507;SDS011;55510;49.560;19.090;2022-09-09T04:21:17;7.22;;;4.40;;
68507;SDS011;55510;49.560;19.090;2022-09-09T04:26:18;8.00;;;4.27;;
68507;SDS011;55510;49.560;19.090;2022-09-09T04:31:20;6.75;;;3.88;;
68507;SDS011;55510;49.560;19.090;2022-09-09T04:36:23;5.90;;;3.40;;
68507;SDS011;55510;49.560;19.090;2022-09-09T04:41:24;5.70;;;3.33;;
68507;SDS011;55510;49.560;19.090;2022-09-09T04:46:25;6.87;;;3.90;;
68507;SDS011;55510;49.560;19.090;2022-09-09T04:51:26;6.00;;;3.85;;
68507;SDS011;55510;49.560;19.090;2022-09-09T04:56:27;7.07;;;3.87;;
68507;SDS011;55510;49.560;19.090;2022-09-09T05:01:28;6.85;;;3.60;;
68507;SDS011;55510;49.560;19.090;2022-09-09T05:06:29;7.67;;;3.73;;
68507;SDS011;55510;49.560;19.090;2022-09-09T05:11:32;6.43;;;3.35;;
68507;SDS011;55510;49.560;19.090;2022-09-09T05:16:36;7.13;;;3.78;;
68507;SDS011;55510;49.560;19.090;2022-09-09T05:21:38;7.57;;;3.93;;
68507;SDS011;55510;49.560;19.090;2022-09-09T05:26:38;7.65;;;4.57;;
68507;SDS011;55510;49.560;19.090;2022-09-09T05:31:39;10.40;;;6.63;;
68507;SDS011;55510;49.560;19.090;2022-09-09T05:36:41;11.10;;;7.55;;
68507;SDS011;55510;49.560;19.090;2022-09-09T05:41:42;13.87;;;8.90;;
68507;SDS011;55510;49.560;19.090;2022-09-09T05:46:42;12.03;;;8.83;;
68507;SDS011;55510;49.560;19.090;2022-09-09T05:51:43;11.10;;;6.70;;
68507;SDS011;55510;49.560;19.090;2022-09-09T05:56:44;8.93;;;6.67;;
68507;SDS011;55510;49.560;19.090;2022-09-09T06:01:45;8.50;;;5.65;;
68507;SDS011;55510;49.560;19.090;2022-09-09T06:06:46;17.60;;;5.63;;
68507;SDS011;55510;49.560;19.090;2022-09-09T06:11:46;8.13;;;4.33;;
68507;SDS011;55510;49.560;19.090;2022-09-09T06:16:47;6.88;;;4.05;;
68507;SDS011;55510;49.560;19.090;2022-09-09T06:21:48;9.73;;;4.60;;
68507;SDS011;55510;49.560;19.090;2022-09-09T06:26:49;6.57;;;4.18;;
68507;SDS011;55510;49.560;19.090;2022-09-09T06:31:50;6.00;;;3.93;;
68507;SDS011;55510;49.560;19.090;2022-09-09T06:36:50;6.63;;;4.60;;
68507;SDS011;55510;49.560;19.090;2022-09-09T06:41:52;6.30;;;3.90;;
68507;SDS011;55510;49.560;19.090;2022-09-09T06:46:53;9.23;;;3.60;;
68507;SDS011;55510;49.560;19.090;2022-09-09T06:51:54;8.10;;;4.03;;
68507;SDS011;55510;49.560;19.090;2022-09-09T06:56:54;5.07;;;3.10;;
68507;SDS011;55510;49.560;19.090;2022-09-09T07:01:55;5.00;;;3.25;;
68507;SDS011;55510;49.560;19.090;2022-09-09T07:06:57;5.55;;;3.55;;
68507;SDS011;55510;49.560;19.090;2022-09-09T07:11:59;4.97;;;3.20;;
68507;SDS011;55510;49.560;19.090;2022-09-09T07:17:00;5.88;;;3.22;;
68507;SDS011;55510;49.560;19.090;2022-09-09T07:22:00;6.20;;;3.50;;
68507;SDS011;55510;49.560;19.090;2022-09-09T07:27:03;5.45;;;3.90;;
68507;SDS011;55510;49.560;19.090;2022-09-09T07:32:06;6.70;;;2.35;;
68507;SDS011;55510;49.560;19.090;2022-09-09T07:37:06;3.60;;;2.07;;
68507;SDS011;55510;49.560;19.090;2022-09-09T07:42:08;3.25;;;2.00;;
68507;SDS011;55510;49.560;19.090;2022-09-09T07:47:12;3.25;;;1.90;;
68507;SDS011;55510;49.560;19.090;2022-09-09T07:52:12;2.83;;;1.50;;
68507;SDS011;55510;49.560;19.090;2022-09-09T07:57:13;3.43;;;1.37;;
68507;SDS011;55510;49.560;19.090;2022-09-09T08:02:15;4.37;;;1.20;;
68507;SDS011;55510;49.560;19.090;2022-09-09T08:07:16;3.15;;;0.90;;
68507;SDS011;55510;49.560;19.090;2022-09-09T08:12:18;2.43;;;1.20;;
68507;SDS011;55510;49.560;19.090;2022-09-09T08:17:19;2.35;;;0.70;;
68507;SDS011;55510;49.560;19.090;2022-09-09T08:22:19;2.40;;;1.30;;
68507;SDS011;55510;49.560;19.090;2022-09-09T08:27:21;1.90;;;1.00;;
68507;SDS011;55510;49.560;19.090;2022-09-09T08:32:23;2.90;;;1.52;;
68507;SDS011;55510;49.560;19.090;2022-09-09T08:37:23;1.90;;;0.90;;
68507;SDS011;55510;49.560;19.090;2022-09-09T08:47:51;2.50;;;1.60;;
68507;SDS011;55510;49.560;19.090;2022-09-09T08:58:09;2.43;;;1.20;;
68507;SDS011;55510;49.560;19.090;2022-09-09T09:14:22;1.98;;;0.80;;
68507;SDS011;55510;49.560;19.090;2022-09-09T09:19:24;2.20;;;1.53;;
68507;SDS011;55510;49.560;19.090;2022-09-09T09:24:30;3.75;;;1.42;;
68507;SDS011;55510;49.560;19.090;2022-09-09T09:29:42;1.83;;;0.80;;
68507;SDS011;55510;49.560;19.090;2022-09-09T09:34:51;2.17;;;1.10;;
68507;SDS011;55510;49.560;19.090;2022-09-09T09:40:07;2.03;;;1.00;;
68507;SDS011;55510;49.560;19.090;2022-09-09T09:50:51;2.80;;;1.50;;
68507;SDS011;55510;49.560;19.090;2022-09-09T09:55:56;1.93;;;1.03;;
68507;SDS011;55510;49.560;19.090;2022-09-09T10:01:01;1.95;;;1.08;;
68507;SDS011;55510;49.560;19.090;2022-09-09T10:06:01;2.90;;;1.67;;
68507;SDS011;55510;49.560;19.090;2022-09-09T10:21:17;1.70;;;1.00;;
68507;SDS011;55510;49.560;19.090;2022-09-09T10:37:38;2.83;;;0.97;;
68507;SDS011;55510;49.560;19.090;2022-09-09T10:42:48;2.00;;;1.30;;
68507;SDS011;55510;49.560;19.090;2022-09-09T10:58:30;2.37;;;1.33;;
68507;SDS011;55510;49.560;19.090;2022-09-09T11:03:38;1.77;;;1.00;;
68507;SDS011;55510;49.560;19.090;2022-09-09T11:08:41;1.75;;;0.93;;
68507;SDS011;55510;49.560;19.090;2022-09-09T11:13:44;1.90;;;1.10;;
68507;SDS011;55510;49.560;19.090;2022-09-09T11:19:30;2.28;;;1.52;;
68507;SDS011;55510;49.560;19.090;2022-09-09T11:24:40;2.30;;;1.55;;
68507;SDS011;55510;49.560;19.090;2022-09-09T11:40:32;2.00;;;1.10;;
68507;SDS011;55510;49.560;19.090;2022-09-09T11:45:33;2.43;;;1.83;;
68507;SDS011;55510;49.560;19.090;2022-09-09T11:50:36;2.55;;;1.67;;
68507;SDS011;55510;49.560;19.090;2022-09-09T11:55:38;3.08;;;1.77;;
68507;SDS011;55510;49.560;19.090;2022-09-09T12:00:39;4.90;;;2.83;;
68507;SDS011;55510;49.560;19.090;2022-09-09T12:05:47;3.30;;;2.10;;
68507;SDS011;55510;49.560;19.090;2022-09-09T12:10:55;4.38;;;1.88;;
68507;SDS011;55510;49.560;19.090;2022-09-09T12:15:58;3.57;;;1.87;;
68507;SDS011;55510;49.560;19.090;2022-09-09T12:21:06;4.43;;;1.88;;
68507;SDS011;55510;49.560;19.090;2022-09-09T12:31:22;3.00;;;1.67;;
68507;SDS011;55510;49.560;19.090;2022-09-09T12:36:27;3.65;;;1.80;;
68507;SDS011;55510;49.560;19.090;2022-09-09T12:41:30;6.45;;;4.07;;
68507;SDS011;55510;49.560;19.090;2022-09-09T12:46:41;3.57;;;2.20;;
68507;SDS011;55510;49.560;19.090;2022-09-09T12:51:45;3.92;;;2.20;;
68507;SDS011;55510;49.560;19.090;2022-09-09T12:56:46;4.72;;;2.03;;
68507;SDS011;55510;49.560;19.090;2022-09-09T13:01:56;4.53;;;2.20;;
68507;SDS011;55510;49.560;19.090;2022-09-09T13:07:06;3.92;;;2.33;;
68507;SDS011;55510;49.560;19.090;2022-09-09T13:12:14;4.47;;;2.50;;
68507;SDS011;55510;49.560;19.090;2022-09-09T13:17:22;3.33;;;1.70;;
68507;SDS011;55510;49.560;19.090;2022-09-09T13:22:35;3.15;;;1.52;;
68507;SDS011;55510;49.560;19.090;2022-09-09T13:27:39;3.75;;;1.88;;
68507;SDS011;55510;49.560;19.090;2022-09-09T13:38:09;4.90;;;2.60;;
68507;SDS011;55510;49.560;19.090;2022-09-09T13:43:13;2.95;;;1.55;;
68507;SDS011;55510;49.560;19.090;2022-09-09T13:48:21;5.53;;;2.17;;
68507;SDS011;55510;49.560;19.090;2022-09-09T13:53:22;5.03;;;3.20;;
68507;SDS011;55510;49.560;19.090;2022-09-09T13:58:23;6.97;;;2.97;;
68507;SDS011;55510;49.560;19.090;2022-09-09T14:03:25;3.60;;;1.92;;
68507;SDS011;55510;49.560;19.090;2022-09-09T14:08:26;6.33;;;2.90;;
68507;SDS011;55510;49.560;19.090;2022-09-09T14:13:33;3.25;;;1.30;;
68507;SDS011;55510;49.560;19.090;2022-09-09T14:18:34;3.63;;;1.90;;
68507;SDS011;55510;49.560;19.090;2022-09-09T14:23:36;3.15;;;1.55;;
68507;SDS011;55510;49.560;19.090;2022-09-09T14:28:38;5.60;;;2.20;;
68507;SDS011;55510;49.560;19.090;2022-09-09T14:33:40;10.13;;;5.10;;
68507;SDS011;55510;49.560;19.090;2022-09-09T14:38:41;5.33;;;3.87;;
68507;SDS011;55510;49.560;19.090;2022-09-09T14:43:43;5.78;;;3.42;;
68507;SDS011;55510;49.560;19.090;2022-09-09T14:48:45;7.83;;;4.20;;
68507;SDS011;55510;49.560;19.090;2022-09-09T14:53:52;16.43;;;14.80;;
68507;SDS011;55510;49.560;19.090;2022-09-09T14:58:56;6.28;;;4.53;;
68507;SDS011;55510;49.560;19.090;2022-09-09T15:04:02;5.18;;;4.22;;
68507;SDS011;55510;49.560;19.090;2022-09-09T15:09:04;11.90;;;8.57;;
68507;SDS011;55510;49.560;19.090;2022-09-09T15:14:06;11.77;;;7.55;;
68507;SDS011;55510;49.560;19.090;2022-09-09T15:19:11;15.80;;;10.40;;
68507;SDS011;55510;49.560;19.090;2022-09-09T15:24:12;9.57;;;6.33;;
68507;SDS011;55510;49.560;19.090;2022-09-09T15:29:13;6.55;;;5.07;;
68507;SDS011;55510;49.560;19.090;2022-09-09T15:34:14;5.83;;;4.00;;
68507;SDS011;55510;49.560;19.090;2022-09-09T15:39:16;4.80;;;3.58;;
68507;SDS011;55510;49.560;19.090;2022-09-09T15:44:18;4.73;;;3.50;;
68507;SDS011;55510;49.560;19.090;2022-09-09T15:49:20;10.68;;;5.97;;
68507;SDS011;55510;49.560;19.090;2022-09-09T15:54:25;11.63;;;7.40;;
68507;SDS011;55510;49.560;19.090;2022-09-09T15:59:27;21.20;;;11.77;;
68507;SDS011;55510;49.560;19.090;2022-09-09T16:04:30;33.33;;;19.63;;
68507;SDS011;55510;49.560;19.090;2022-09-09T16:09:32;27.77;;;15.35;;
68507;SDS011;55510;49.560;19.090;2022-09-09T16:14:33;23.87;;;13.00;;
68507;SDS011;55510;49.560;19.090;2022-09-09T16:19:36;21.55;;;12.57;;
68507;SDS011;55510;49.560;19.090;2022-09-09T16:24:36;15.83;;;10.17;;
68507;SDS011;55510;49.560;19.090;2022-09-09T16:29:39;24.83;;;14.07;;
68507;SDS011;55510;49.560;19.090;2022-09-09T16:34:40;45.15;;;23.42;;
68507;SDS011;55510;49.560;19.090;2022-09-09T16:39:40;34.13;;;17.20;;
68507;SDS011;55510;49.560;19.090;2022-09-09T16:44:41;25.93;;;13.40;;
68507;SDS011;55510;49.560;19.090;2022-09-09T16:49:42;22.45;;;11.40;;
68507;SDS011;55510;49.560;19.090;2022-09-09T16:54:44;17.23;;;8.80;;
68507;SDS011;55510;49.560;19.090;2022-09-09T16:59:45;11.37;;;5.90;;
68507;SDS011;55510;49.560;19.090;2022-09-09T17:04:46;12.20;;;4.97;;
68507;SDS011;55510;49.560;19.090;2022-09-09T17:09:47;7.75;;;4.25;;
68507;SDS011;55510;49.560;19.090;2022-09-09T17:14:50;9.90;;;4.80;;
68507;SDS011;55510;49.560;19.090;2022-09-09T17:19:51;8.07;;;4.37;;
68507;SDS011;55510;49.560;19.090;2022-09-09T17:24:51;10.17;;;4.73;;
68507;SDS011;55510;49.560;19.090;2022-09-09T17:29:52;11.77;;;5.50;;
68507;SDS011;55510;49.560;19.090;2022-09-09T17:34:53;17.67;;;7.67;;
68507;SDS011;55510;49.560;19.090;2022-09-09T17:39:53;17.47;;;8.57;;
68507;SDS011;55510;49.560;19.090;2022-09-09T17:44:54;19.17;;;9.02;;
68507;SDS011;55510;49.560;19.090;2022-09-09T17:49:55;17.80;;;8.67;;
68507;SDS011;55510;49.560;19.090;2022-09-09T17:54:55;16.30;;;8.07;;
68507;SDS011;55510;49.560;19.090;2022-09-09T17:59:57;11.30;;;6.18;;
68507;SDS011;55510;49.560;19.090;2022-09-09T18:04:58;11.75;;;6.97;;
68507;SDS011;55510;49.560;19.090;2022-09-09T18:10:01;19.43;;;9.10;;
68507;SDS011;55510;49.560;19.090;2022-09-09T18:15:02;15.07;;;8.27;;
68507;SDS011;55510;49.560;19.090;2022-09-09T18:20:04;13.57;;;7.38;;
68507;SDS011;55510;49.560;19.090;2022-09-09T18:25:06;13.97;;;8.00;;
68507;SDS011;55510;49.560;19.090;2022-09-09T18:30:07;11.63;;;6.40;;
68507;SDS011;55510;49.560;19.090;2022-09-09T18:35:09;10.95;;;5.95;;
68507;SDS011;55510;49.560;19.090;2022-09-09T18:40:10;11.47;;;5.70;;
68507;SDS011;55510;49.560;19.090;2022-09-09T18:45:13;13.27;;;7.30;;
68507;SDS011;55510;49.560;19.090;2022-09-09T18:50:14;14.60;;;8.13;;
68507;SDS011;55510;49.560;19.090;2022-09-09T18:55:15;16.40;;;9.30;;
68507;SDS011;55510;49.560;19.090;2022-09-09T19:00:16;21.75;;;11.98;;
68507;SDS011;55510;49.560;19.090;2022-09-09T19:05:17;23.83;;;12.67;;
68507;SDS011;55510;49.560;19.090;2022-09-09T19:10:18;20.90;;;11.65;;
68507;SDS011;55510;49.560;19.090;2022-09-09T19:15:19;22.37;;;11.33;;
68507;SDS011;55510;49.560;19.090;2022-09-09T19:20:20;18.30;;;10.38;;
68507;SDS011;55510;49.560;19.090;2022-09-09T19:25:23;22.55;;;11.13;;
68507;SDS011;55510;49.560;19.090;2022-09-09T19:30:24;19.90;;;10.17;;
68507;SDS011;55510;49.560;19.090;2022-09-09T19:35:25;19.02;;;9.43;;
68507;SDS011;55510;49.560;19.090;2022-09-09T19:40:27;19.65;;;10.50;;
68507;SDS011;55510;49.560;19.090;2022-09-09T19:45:31;20.80;;;10.07;;
68507;SDS011;55510;49.560;19.090;2022-09-09T19:50:33;21.30;;;11.37;;
68507;SDS011;55510;49.560;19.090;2022-09-09T19:55:40;19.37;;;11.60;;
68507;SDS011;55510;49.560;19.090;2022-09-09T20:00:41;14.60;;;8.23;;
68507;SDS011;55510;49.560;19.090;2022-09-09T20:05:42;12.90;;;7.22;;
68507;SDS011;55510;49.560;19.090;2022-09-09T20:10:50;16.33;;;7.40;;
68507;SDS011;55510;49.560;19.090;2022-09-09T20:15:58;15.98;;;8.60;;
68507;SDS011;55510;49.560;19.090;2022-09-09T20:21:01;15.70;;;7.82;;
68507;SDS011;55510;49.560;19.090;2022-09-09T20:26:07;13.17;;;7.97;;
68507;SDS011;55510;49.560;19.090;2022-09-09T20:31:11;14.48;;;6.70;;
68507;SDS011;55510;49.560;19.090;2022-09-09T20:36:16;13.30;;;7.82;;
68507;SDS011;55510;49.560;19.090;2022-09-09T20:41:19;11.93;;;6.70;;
68507;SDS011;55510;49.560;19.090;2022-09-09T20:46:23;14.38;;;7.53;;
68507;SDS011;55510;49.560;19.090;2022-09-09T20:51:26;15.68;;;8.18;;
68507;SDS011;55510;49.560;19.090;2022-09-09T20:56:30;15.30;;;7.20;;
68507;SDS011;55510;49.560;19.090;2022-09-09T21:01:32;13.27;;;7.50;;
68507;SDS011;55510;49.560;19.090;2022-09-09T21:06:33;14.30;;;7.07;;
68507;SDS011;55510;49.560;19.090;2022-09-09T21:11:34;13.87;;;7.20;;
68507;SDS011;55510;49.560;19.090;2022-09-09T21:16:34;14.80;;;8.63;;
68507;SDS011;55510;49.560;19.090;2022-09-09T21:21:35;14.52;;;8.32;;
68507;SDS011;55510;49.560;19.090;2022-09-09T21:26:36;14.47;;;7.33;;
68507;SDS011;55510;49.560;19.090;2022-09-09T21:31:37;15.33;;;7.27;;
68507;SDS011;55510;49.560;19.090;2022-09-09T21:36:38;14.73;;;7.57;;
68507;SDS011;55510;49.560;19.090;2022-09-09T21:41:40;10.20;;;6.38;;
68507;SDS011;55510;49.560;19.090;2022-09-09T21:46:41;10.50;;;6.80;;
68507;SDS011;55510;49.560;19.090;2022-09-09T21:51:43;12.27;;;6.32;;
68507;SDS011;55510;49.560;19.090;2022-09-09T21:56:47;11.70;;;6.15;;
68507;SDS011;55510;49.560;19.090;2022-09-09T22:01:48;12.37;;;5.63;;
68507;SDS011;55510;49.560;19.090;2022-09-09T22:06:49;10.80;;;6.28;;
68507;SDS011;55510;49.560;19.090;2022-09-09T22:11:50;10.60;;;6.57;;
68507;SDS011;55510;49.560;19.090;2022-09-09T22:16:52;11.53;;;7.00;;
68507;SDS011;55510;49.560;19.090;2022-09-09T22:21:53;13.95;;;7.22;;
68507;SDS011;55510;49.560;19.090;2022-09-09T22:26:53;13.57;;;7.53;;
68507;SDS011;55510;49.560;19.090;2022-09-09T22:31:54;10.93;;;6.27;;
68507;SDS011;55510;49.560;19.090;2022-09-09T22:36:56;12.45;;;6.78;;
68507;SDS011;55510;49.560;19.090;2022-09-09T22:41:57;11.73;;;5.77;;
68507;SDS011;55510;49.560;19.090;2022-09-09T22:46:58;11.10;;;6.23;;
68507;SDS011;55510;49.560;19.090;2022-09-09T22:52:00;9.48;;;6.10;;
68507;SDS011;55510;49.560;19.090;2022-09-09T22:57:01;11.27;;;6.63;;
68507;SDS011;55510;49.560;19.090;2022-09-09T23:02:02;10.60;;;6.33;;
68507;SDS011;55510;49.560;19.090;2022-09-09T23:07:03;9.43;;;6.15;;
68507;SDS011;55510;49.560;19.090;2022-09-09T23:12:07;12.57;;;7.13;;
68507;SDS011;55510;49.560;19.090;2022-09-09T23:17:08;13.02;;;6.80;;
68507;SDS011;55510;49.560;19.090;2022-09-09T23:22:09;9.60;;;6.30;;
68507;SDS011;55510;49.560;19.090;2022-09-09T23:27:10;10.45;;;5.97;;
68507;SDS011;55510;49.560;19.090;2022-09-09T23:32:12;12.00;;;6.55;;
68507;SDS011;55510;49.560;19.090;2022-09-09T23:37:13;11.03;;;6.43;;
68507;SDS011;55510;49.560;19.090;2022-09-09T23:42:14;12.83;;;6.30;;
68507;SDS011;55510;49.560;19.090;2022-09-09T23:47:14;9.30;;;6.47;;
68507;SDS011;55510;49.560;19.090;2022-09-09T23:52:15;15.20;;;7.13;;
68507;SDS011;55510;49.560;19.090;2022-09-09T23:57:17;13.87;;;7.30;;
